Time;durP1;ratioP1;P1;durP2;ratioP2;P2;SDS_P1;SDS_P2;PMS_P1;PMS_P2;Temp;Humidity;BMP_temperature;BMP_pressure;BME280_temperature;BME280_humidity;BME280_pressure;Samples;Min_cycle;Max_cycle;Signal;HPM_P1;HPM_P2
2021/07/25 00:02:09;;;;;;;19.00;16.25;;;24.60;74.50;;;;;;6275752;22;20039;-55
2021/07/25 00:04:34;;;;;;;18.65;15.90;;;24.50;74.50;;;;;;6275845;22;20062;-57
2021/07/25 00:07:00;;;;;;;21.42;16.88;;;24.50;74.70;;;;;;6275500;22;20453;-57
2021/07/25 00:09:26;;;;;;;20.77;18.17;;;24.50;74.70;;;;;;6248882;22;20377;-53
2021/07/25 00:11:52;;;;;;;19.33;17.27;;;24.50;74.80;;;;;;6275872;22;20007;-54
2021/07/25 00:14:17;;;;;;;19.38;17.35;;;24.40;74.70;;;;;;6248375;22;20464;-58
2021/07/25 00:16:43;;;;;;;19.83;17.20;;;24.50;74.70;;;;;;6275742;22;20011;-57
2021/07/25 00:19:12;;;;;;;17.95;15.65;;;24.40;74.60;;;;;;6275415;22;20008;-55
2021/07/25 00:21:38;;;;;;;18.15;16.25;;;24.50;74.60;;;;;;6275116;22;20059;-52
2021/07/25 00:24:04;;;;;;;19.17;16.63;;;24.40;74.70;;;;;;6276143;22;19995;-51
2021/07/25 00:26:37;;;;;;;19.58;16.48;;;24.40;74.80;;;;;;6275102;22;20031;-51
2021/07/25 00:29:03;;;;;;;19.10;17.00;;;24.40;74.80;;;;;;6275833;22;20000;-52
2021/07/25 00:31:29;;;;;;;18.17;16.38;;;24.40;74.90;;;;;;6274751;22;20071;-54
2021/07/25 00:33:55;;;;;;;18.02;16.13;;;24.30;74.80;;;;;;6275698;22;20386;-55
2021/07/25 00:36:21;;;;;;;18.75;16.58;;;24.40;75.00;;;;;;6274771;22;20015;-57
2021/07/25 00:38:47;;;;;;;18.50;16.58;;;24.30;74.90;;;;;;6275439;22;20499;-54
2021/07/25 00:41:14;;;;;;;20.15;17.00;;;24.30;75.10;;;;;;6274965;22;20007;-53
2021/07/25 00:43:40;;;;;;;19.25;16.85;;;24.30;75.60;;;;;;6275834;22;20003;-56
2021/07/25 00:46:06;;;;;;;18.73;16.83;;;24.30;76.00;;;;;;6275085;22;20093;-56
2021/07/25 00:48:34;;;;;;;21.50;17.63;;;24.30;76.00;;;;;;6274945;22;20298;-56
2021/07/25 00:51:00;;;;;;;21.42;19.27;;;24.20;76.10;;;;;;6274903;22;20318;-55
2021/07/25 00:53:27;;;;;;;20.02;17.98;;;24.20;76.10;;;;;;6275589;22;20008;-57
2021/07/25 00:55:53;;;;;;;22.75;18.20;;;24.20;76.30;;;;;;6275163;22;20003;-58
2021/07/25 00:58:19;;;;;;;20.92;16.83;;;24.10;76.40;;;;;;6275463;22;20000;-58
2021/07/25 01:00:46;;;;;;;18.10;16.25;;;24.00;76.10;;;;;;6274559;22;20014;-56
2021/07/25 01:03:34;;;;;;;17.50;15.90;;;24.10;76.10;;;;;;6275080;22;20449;-52
2021/07/25 01:06:32;;;;;;;19.63;17.23;;;24.10;75.80;;;;;;6275230;22;20008;-56
2021/07/25 01:09:01;;;;;;;17.65;15.80;;;24.10;76.10;;;;;;6275233;22;20082;-56
2021/07/25 01:11:45;;;;;;;19.85;16.75;;;24.00;76.20;;;;;;6275560;22;20071;-55
2021/07/25 01:14:17;;;;;;;17.73;15.75;;;24.00;76.10;;;;;;6276363;22;20004;-54
2021/07/25 01:16:43;;;;;;;17.38;15.57;;;23.90;75.50;;;;;;6275119;22;20006;-54
2021/07/25 01:19:08;;;;;;;19.08;15.77;;;23.90;75.60;;;;;;6275146;22;20442;-54
2021/07/25 01:21:34;;;;;;;18.40;16.42;;;23.90;75.80;;;;;;6275609;22;20014;-59
2021/07/25 01:24:00;;;;;;;17.83;15.90;;;23.70;76.20;;;;;;6274951;22;20000;-59
2021/07/25 01:26:34;;;;;;;18.77;16.80;;;23.70;76.40;;;;;;6274439;22;20315;-58
2021/07/25 01:29:03;;;;;;;18.10;16.15;;;23.70;76.70;;;;;;6275252;22;20430;-53
2021/07/25 01:31:33;;;;;;;17.67;15.93;;;23.70;77.00;;;;;;6274353;22;20030;-57
2021/07/25 01:34:00;;;;;;;19.83;16.67;;;23.70;77.00;;;;;;6275183;22;20027;-59
2021/07/25 01:36:27;;;;;;;21.17;16.75;;;23.70;77.10;;;;;;6276108;22;19996;-56
2021/07/25 01:38:53;;;;;;;20.02;16.40;;;23.70;77.30;;;;;;6274677;22;20054;-56
2021/07/25 01:41:19;;;;;;;18.90;16.90;;;23.70;77.10;;;;;;6275187;22;20012;-58
2021/07/25 01:43:51;;;;;;;17.15;15.35;;;23.70;76.80;;;;;;6274673;22;20369;-53
2021/07/25 01:46:17;;;;;;;18.13;16.27;;;23.70;76.80;;;;;;6255108;22;20008;-52
2021/07/25 01:48:42;;;;;;;18.85;16.85;;;23.70;77.00;;;;;;6274956;22;20452;-57
2021/07/25 01:51:10;;;;;;;18.08;16.05;;;23.70;77.10;;;;;;6274604;22;20003;-54
2021/07/25 01:53:36;;;;;;;20.05;17.10;;;23.70;77.10;;;;;;6274698;22;20326;-54
2021/07/25 01:56:02;;;;;;;19.88;17.48;;;23.70;77.30;;;;;;6274849;22;20008;-56
2021/07/25 01:58:27;;;;;;;20.67;18.17;;;23.60;77.70;;;;;;6274223;22;20017;-54
2021/07/25 02:00:53;;;;;;;18.52;16.52;;;23.60;77.90;;;;;;6275107;22;20071;-55
2021/07/25 02:03:24;;;;;;;18.77;16.40;;;23.60;78.20;;;;;;6274979;22;20008;-57
2021/07/25 02:05:50;;;;;;;18.42;16.58;;;23.50;78.90;;;;;;6274172;22;20278;-57
2021/07/25 02:08:16;;;;;;;20.80;18.58;;;23.30;79.80;;;;;;6274966;22;20523;-54
2021/07/25 02:10:46;;;;;;;19.25;17.25;;;22.90;81.70;;;;;;6274957;22;20070;-55
2021/07/25 02:13:16;;;;;;;20.05;17.90;;;22.70;82.70;;;;;;6275909;22;20082;-55
2021/07/25 02:15:42;;;;;;;22.83;18.40;;;22.60;83.50;;;;;;6277075;22;20413;-55
2021/07/25 02:18:08;;;;;;;20.08;17.75;;;22.60;83.80;;;;;;6277131;22;20000;-57
2021/07/25 02:20:34;;;;;;;19.25;17.23;;;22.60;84.20;;;;;;6276077;22;20464;-57
2021/07/25 02:23:00;;;;;;;22.42;17.38;;;22.60;84.20;;;;;;6276850;22;20087;-56
2021/07/25 02:25:26;;;;;;;23.02;18.60;;;22.50;84.60;;;;;;6276581;22;20011;-53
2021/07/25 02:27:52;;;;;;;21.00;18.80;;;22.40;85.00;;;;;;6276984;22;20315;-51
2021/07/25 02:30:17;;;;;;;22.27;19.25;;;22.30;85.40;;;;;;6276743;22;19999;-52
2021/07/25 02:32:43;;;;;;;21.35;19.10;;;22.20;85.70;;;;;;6276860;22;20489;-53
2021/07/25 02:35:09;;;;;;;22.52;19.80;;;22.10;86.20;;;;;;6276494;22;19995;-53
2021/07/25 02:37:34;;;;;;;25.13;19.92;;;22.10;86.40;;;;;;6276502;22;20130;-59
2021/07/25 02:40:00;;;;;;;21.95;19.58;;;22.00;86.60;;;;;;6276231;22;20054;-54
2021/07/25 02:42:26;;;;;;;24.20;19.15;;;22.10;86.30;;;;;;6276481;22;20642;-53
2021/07/25 02:44:51;;;;;;;23.35;19.42;;;22.00;86.30;;;;;;6276486;22;20011;-52
2021/07/25 02:47:17;;;;;;;24.50;20.65;;;22.00;86.10;;;;;;6276209;22;20015;-55
2021/07/25 02:49:43;;;;;;;27.42;21.88;;;22.00;85.80;;;;;;6277027;22;20031;-57
2021/07/25 02:52:09;;;;;;;23.13;20.75;;;21.90;86.40;;;;;;6276668;22;20341;-57
2021/07/25 02:54:34;;;;;;;25.30;20.40;;;21.80;86.80;;;;;;6277242;22;20477;-56
2021/07/25 02:57:00;;;;;;;24.40;19.42;;;21.80;86.50;;;;;;6275477;22;20015;-57
2021/07/25 02:59:25;;;;;;;21.92;19.75;;;21.80;86.60;;;;;;6275746;22;20326;-57
2021/07/25 03:01:51;;;;;;;24.75;20.58;;;21.70;86.90;;;;;;6274949;22;20014;-60
2021/07/25 03:04:18;;;;;;;21.73;19.33;;;21.80;87.20;;;;;;6276605;22;20380;-54
2021/07/25 03:06:43;;;;;;;22.55;20.27;;;21.80;87.20;;;;;;6276226;22;20023;-55
2021/07/25 03:09:09;;;;;;;24.02;20.42;;;21.80;87.20;;;;;;6276488;22;20446;-56
2021/07/25 03:11:44;;;;;;;23.10;20.60;;;21.80;86.90;;;;;;6249329;22;20035;-58
2021/07/25 03:14:09;;;;;;;22.60;20.08;;;21.80;86.90;;;;;;6250764;22;20516;-55
2021/07/25 03:16:35;;;;;;;22.27;19.40;;;21.90;86.70;;;;;;6275612;22;20044;-53
2021/07/25 03:19:00;;;;;;;22.38;18.73;;;21.90;86.80;;;;;;6274904;22;20433;-56
2021/07/25 03:21:26;;;;;;;20.63;18.48;;;21.90;86.80;;;;;;6276628;22;20007;-55
2021/07/25 03:23:52;;;;;;;21.73;19.42;;;21.90;86.70;;;;;;6276801;22;20003;-57
2021/07/25 03:26:17;;;;;;;23.50;19.08;;;21.80;86.70;;;;;;6248671;22;20086;-55
2021/07/25 03:28:43;;;;;;;20.75;18.55;;;21.80;86.50;;;;;;6274989;22;20083;-57
2021/07/25 03:31:09;;;;;;;20.02;17.98;;;21.80;86.60;;;;;;6275690;22;20035;-55
2021/07/25 03:33:34;;;;;;;25.13;18.20;;;21.70;86.80;;;;;;6275622;22;20016;-56
2021/07/25 03:36:00;;;;;;;20.60;17.77;;;21.60;86.60;;;;;;6275282;22;20091;-59
2021/07/25 03:38:26;;;;;;;23.20;17.15;;;21.70;87.00;;;;;;6274057;22;20442;-57
2021/07/25 03:40:52;;;;;;;19.33;17.17;;;21.70;86.30;;;;;;6275714;22;20004;-56
2021/07/25 03:43:17;;;;;;;21.42;17.33;;;21.80;86.00;;;;;;6275951;22;20019;-55
2021/07/25 03:45:46;;;;;;;19.55;17.65;;;21.70;85.60;;;;;;6274756;22;20004;-51
2021/07/25 03:48:12;;;;;;;18.50;16.48;;;21.80;85.00;;;;;;6275480;22;20442;-55
2021/07/25 03:50:40;;;;;;;19.25;16.83;;;21.70;84.70;;;;;;6274734;22;20052;-50
2021/07/25 03:53:06;;;;;;;18.77;16.83;;;21.70;84.50;;;;;;6274964;22;20004;-54
2021/07/25 03:55:32;;;;;;;18.52;16.23;;;21.70;84.80;;;;;;6275008;22;20083;-55
2021/07/25 03:57:58;;;;;;;18.90;16.98;;;21.60;84.90;;;;;;6275783;22;20000;-51
2021/07/25 04:00:23;;;;;;;21.52;16.67;;;21.60;85.00;;;;;;6275412;22;20011;-50
2021/07/25 04:02:49;;;;;;;17.80;16.00;;;21.70;84.80;;;;;;6275432;22;20007;-55
2021/07/25 04:05:14;;;;;;;18.95;16.95;;;21.70;84.50;;;;;;6275580;22;20008;-53
2021/07/25 04:07:40;;;;;;;18.45;16.48;;;21.70;84.50;;;;;;6275013;22;20100;-52
2021/07/25 04:10:06;;;;;;;20.50;16.20;;;21.70;84.50;;;;;;6275464;22;19999;-52
2021/07/25 04:12:32;;;;;;;18.77;16.88;;;21.70;84.50;;;;;;6276047;22;20000;-55
2021/07/25 04:14:57;;;;;;;18.70;16.17;;;21.70;84.10;;;;;;6275634;22;20004;-58
2021/07/25 04:17:23;;;;;;;20.08;17.55;;;21.70;83.80;;;;;;6276026;22;20098;-58
2021/07/25 04:19:49;;;;;;;17.52;15.68;;;21.60;84.30;;;;;;6275109;22;20022;-55
2021/07/25 04:22:14;;;;;;;18.15;16.23;;;21.50;84.70;;;;;;6275481;22;20377;-53
2021/07/25 04:24:40;;;;;;;18.67;15.82;;;21.50;85.00;;;;;;6275653;22;20027;-54
2021/07/25 04:27:06;;;;;;;20.90;16.70;;;21.50;85.10;;;;;;6273412;22;20007;-55
2021/07/25 04:29:32;;;;;;;17.98;16.08;;;21.60;84.80;;;;;;6273643;22;20038;-54
2021/07/25 04:31:57;;;;;;;17.20;15.43;;;21.50;85.20;;;;;;6275231;22;20010;-54
2021/07/25 04:34:24;;;;;;;22.98;17.25;;;21.40;85.70;;;;;;6275474;22;20000;-52
2021/07/25 04:36:50;;;;;;;19.27;17.27;;;21.30;86.20;;;;;;6275215;22;20004;-53
2021/07/25 04:39:16;;;;;;;17.65;15.95;;;21.20;86.50;;;;;;6277490;22;19996;-56
2021/07/25 04:41:52;;;;;;;17.38;15.70;;;21.20;86.60;;;;;;6274999;22;20469;-55
2021/07/25 04:44:40;;;;;;;18.40;16.40;;;21.30;86.90;;;;;;6275284;22;20007;-54
2021/07/25 04:47:12;;;;;;;17.83;16.02;;;21.20;87.20;;;;;;6274936;22;20480;-57
2021/07/25 04:49:48;;;;;;;21.23;15.55;;;21.30;87.20;;;;;;6275445;22;20014;-56
2021/07/25 04:52:19;;;;;;;17.20;15.25;;;21.40;87.20;;;;;;6275656;22;20003;-53
2021/07/25 04:54:45;;;;;;;17.42;15.57;;;21.40;87.10;;;;;;6275406;22;20034;-52
2021/07/25 04:57:14;;;;;;;17.25;15.45;;;21.40;87.40;;;;;;6274698;22;19999;-50
2021/07/25 04:59:48;;;;;;;18.58;15.60;;;21.50;86.80;;;;;;6275884;22;20007;-57
2021/07/25 05:02:16;;;;;;;17.70;15.77;;;21.60;87.10;;;;;;6275700;22;20466;-51
2021/07/25 05:04:42;;;;;;;19.05;17.05;;;21.70;86.70;;;;;;6275551;22;20065;-52
2021/07/25 05:07:11;;;;;;;19.85;15.75;;;21.60;86.80;;;;;;6275204;22;20000;-54
2021/07/25 05:09:37;;;;;;;17.08;15.38;;;21.70;87.00;;;;;;6276766;22;20011;-52
2021/07/25 05:12:24;;;;;;;17.02;15.32;;;21.80;86.90;;;;;;6275021;22;20004;-56
2021/07/25 05:15:06;;;;;;;17.30;15.50;;;21.90;86.80;;;;;;6275753;22;20014;-52
2021/07/25 05:17:59;;;;;;;17.17;15.35;;;21.90;87.50;;;;;;6274719;22;20027;-55
2021/07/25 05:20:38;;;;;;;20.23;15.52;;;22.00;87.40;;;;;;6274702;22;20020;-55
2021/07/25 05:23:17;;;;;;;17.60;15.55;;;21.90;88.50;;;;;;6274522;22;20007;-52
2021/07/25 05:25:48;;;;;;;17.83;14.98;;;21.90;89.20;;;;;;6274915;22;20448;-54
2021/07/25 05:28:15;;;;;;;16.15;14.45;;;22.00;89.70;;;;;;6274412;22;20008;-51
2021/07/25 05:30:43;;;;;;;16.23;14.63;;;22.10;89.70;;;;;;6274653;22;20499;-55
2021/07/25 05:33:10;;;;;;;15.07;13.63;;;22.20;89.90;;;;;;6274323;22;20280;-57
2021/07/25 05:35:36;;;;;;;17.02;14.32;;;22.20;90.10;;;;;;6275015;22;19992;-55
2021/07/25 05:38:03;;;;;;;15.43;13.73;;;22.40;90.00;;;;;;6273319;22;20027;-54
2021/07/25 05:40:28;;;;;;;14.13;12.68;;;22.60;89.70;;;;;;6274408;22;20108;-55
2021/07/25 05:42:54;;;;;;;13.25;11.95;;;22.70;89.40;;;;;;6274967;22;20091;-53
2021/07/25 05:45:19;;;;;;;14.75;13.15;;;22.60;90.40;;;;;;6274157;22;20385;-53
2021/07/25 05:47:45;;;;;;;13.32;12.02;;;22.70;90.20;;;;;;6276697;22;20338;-54
2021/07/25 05:50:11;;;;;;;15.20;12.73;;;22.50;90.70;;;;;;6276910;22;20087;-52
2021/07/25 05:52:54;;;;;;;14.00;12.70;;;22.60;90.50;;;;;;6277457;22;20046;-53
2021/07/25 05:55:25;;;;;;;13.90;12.20;;;22.70;90.30;;;;;;6276583;22;20004;-55
2021/07/25 05:57:51;;;;;;;14.30;12.20;;;22.70;90.50;;;;;;6277253;22;20007;-53
2021/07/25 06:00:17;;;;;;;13.77;12.38;;;22.70;90.50;;;;;;6277050;22;20445;-51
2021/07/25 06:02:50;;;;;;;12.43;11.20;;;22.70;90.40;;;;;;6277262;22;20003;-52
2021/07/25 06:05:15;;;;;;;13.40;11.93;;;22.50;90.70;;;;;;6276378;22;20031;-52
2021/07/25 06:07:41;;;;;;;13.73;11.73;;;22.70;90.60;;;;;;6276917;22;20058;-54
2021/07/25 06:10:07;;;;;;;13.70;11.68;;;22.80;90.30;;;;;;6276181;22;20031;-52
2021/07/25 06:12:32;;;;;;;12.60;11.30;;;23.00;90.20;;;;;;6277123;22;20004;-56
2021/07/25 06:14:58;;;;;;;14.18;11.88;;;23.00;90.20;;;;;;6277109;22;20008;-56
2021/07/25 06:17:23;;;;;;;12.38;11.07;;;23.10;90.00;;;;;;6276129;22;20073;-50
2021/07/25 06:19:49;;;;;;;11.73;10.52;;;23.30;89.90;;;;;;6276913;22;20442;-51
2021/07/25 06:22:14;;;;;;;12.27;11.18;;;23.60;88.90;;;;;;6276611;22;20039;-53
2021/07/25 06:24:40;;;;;;;11.80;10.60;;;23.80;88.10;;;;;;6277438;22;20031;-58
2021/07/25 06:27:06;;;;;;;13.40;10.98;;;24.10;87.60;;;;;;6250454;22;20369;-53
2021/07/25 06:29:31;;;;;;;11.40;10.30;;;24.10;87.00;;;;;;6276738;22;20039;-56
2021/07/25 06:31:57;;;;;;;12.75;11.10;;;24.00;87.20;;;;;;6277335;22;20023;-55
2021/07/25 06:34:22;;;;;;;12.93;10.93;;;24.00;87.70;;;;;;6276594;22;20445;-55
2021/07/25 06:36:48;;;;;;;12.55;11.35;;;24.00;87.10;;;;;;6275951;22;19999;-51
2021/07/25 06:39:13;;;;;;;11.43;10.32;;;24.20;86.60;;;;;;6276562;22;20014;-51
2021/07/25 06:41:39;;;;;;;12.52;11.13;;;24.30;86.10;;;;;;6276749;22;20000;-55
2021/07/25 06:44:04;;;;;;;12.68;11.23;;;24.20;86.20;;;;;;6276556;22;20016;-57
2021/07/25 06:46:30;;;;;;;13.40;11.90;;;24.40;85.90;;;;;;6276034;22;20082;-51
2021/07/25 06:48:55;;;;;;;12.43;10.98;;;24.20;84.80;;;;;;6276682;22;20004;-59
2021/07/25 06:51:21;;;;;;;16.08;12.15;;;23.70;86.80;;;;;;6276200;22;20517;-56
2021/07/25 06:53:46;;;;;;;13.85;11.32;;;23.50;87.90;;;;;;6276921;22;20442;-55
2021/07/25 06:56:13;;;;;;;14.43;11.73;;;23.70;87.80;;;;;;6254338;22;20011;-55
2021/07/25 06:58:39;;;;;;;15.65;11.85;;;23.80;87.50;;;;;;6276425;22;20027;-57
2021/07/25 07:01:04;;;;;;;14.65;11.82;;;23.70;87.40;;;;;;6249697;22;20473;-55
2021/07/25 07:03:30;;;;;;;13.73;10.88;;;23.80;87.00;;;;;;6281325;22;20011;-52
2021/07/25 07:05:56;;;;;;;13.82;11.75;;;24.20;85.90;;;;;;6252382;22;20015;-57
2021/07/25 07:08:23;;;;;;;12.88;11.60;;;24.00;86.50;;;;;;6278039;22;20004;-58
2021/07/25 07:10:48;;;;;;;12.90;11.45;;;24.10;85.90;;;;;;6282838;22;20008;-53
2021/07/25 07:13:17;;;;;;;14.38;11.48;;;24.20;85.80;;;;;;6283056;22;20004;-52
2021/07/25 07:15:44;;;;;;;13.80;11.82;;;24.30;84.90;;;;;;6276409;22;20004;-56
2021/07/25 07:18:10;;;;;;;12.90;11.57;;;24.00;85.70;;;;;;6275666;22;20074;-56
2021/07/25 07:20:35;;;;;;;13.65;11.23;;;24.20;85.30;;;;;;6276668;22;20421;-57
2021/07/25 07:23:08;;;;;;;12.75;11.38;;;24.50;85.10;;;;;;6276892;22;20008;-52
2021/07/25 07:25:43;;;;;;;16.30;12.05;;;24.60;84.10;;;;;;6276887;22;20004;-53
2021/07/25 07:28:09;;;;;;;13.13;11.82;;;24.70;83.50;;;;;;6276418;22;20091;-55
2021/07/25 07:30:36;;;;;;;12.60;11.40;;;24.70;82.90;;;;;;6276664;22;20008;-57
2021/07/25 07:33:21;;;;;;;13.00;11.60;;;24.60;83.60;;;;;;6276609;22;20298;-57
2021/07/25 07:35:47;;;;;;;13.43;12.15;;;24.50;83.70;;;;;;6249702;22;20086;-52
2021/07/25 07:38:14;;;;;;;13.30;11.93;;;24.60;83.70;;;;;;6276068;22;20000;-54
2021/07/25 07:40:42;;;;;;;13.25;11.95;;;24.60;83.50;;;;;;6276445;22;20453;-55
2021/07/25 07:43:09;;;;;;;13.65;11.43;;;24.60;83.50;;;;;;6275917;22;20007;-58
2021/07/25 07:45:36;;;;;;;13.90;11.63;;;24.60;83.70;;;;;;6275930;22;20014;-56
2021/07/25 07:48:02;;;;;;;13.35;12.05;;;24.80;83.70;;;;;;6275917;22;20004;-66
2021/07/25 07:50:28;;;;;;;14.02;12.02;;;24.80;84.00;;;;;;6276119;22;20035;-59
2021/07/25 07:52:53;;;;;;;12.48;11.25;;;24.80;83.80;;;;;;6276076;22;20004;-59
2021/07/25 07:55:19;;;;;;;13.35;11.90;;;24.90;83.50;;;;;;6275922;22;20012;-56
2021/07/25 07:57:45;;;;;;;13.27;11.98;;;25.00;82.70;;;;;;6276075;22;20078;-58
2021/07/25 08:00:13;;;;;;;12.57;11.30;;;25.00;82.40;;;;;;6276107;22;20086;-55
2021/07/25 08:02:39;;;;;;;13.20;11.90;;;25.10;82.40;;;;;;6276544;22;20014;-55
2021/07/25 08:05:05;;;;;;;13.57;12.02;;;25.20;82.20;;;;;;6248927;22;20437;-57
2021/07/25 08:07:31;;;;;;;13.35;12.05;;;25.10;82.30;;;;;;6275889;22;20003;-57
2021/07/25 08:09:57;;;;;;;13.60;12.25;;;25.10;82.30;;;;;;6276229;22;20011;-57
2021/07/25 08:12:22;;;;;;;13.18;11.88;;;25.20;82.10;;;;;;6276599;22;20000;-56
2021/07/25 08:14:48;;;;;;;12.63;11.48;;;25.20;82.40;;;;;;6276495;22;20024;-54
2021/07/25 08:17:14;;;;;;;14.50;13.00;;;25.20;82.50;;;;;;6276111;22;20106;-57
2021/07/25 08:19:39;;;;;;;14.07;12.25;;;25.00;82.70;;;;;;6275608;22;20066;-57
2021/07/25 08:22:07;;;;;;;13.70;12.40;;;25.10;81.90;;;;;;6276069;22;20342;-59
2021/07/25 08:24:38;;;;;;;14.75;13.25;;;24.90;82.40;;;;;;6275677;22;20190;-57
2021/07/25 08:27:05;;;;;;;14.10;12.70;;;24.90;82.90;;;;;;6274217;22;20445;-56
2021/07/25 08:29:31;;;;;;;15.43;13.82;;;24.70;82.60;;;;;;6274686;22;20015;-54
2021/07/25 08:31:59;;;;;;;15.40;13.80;;;24.80;81.80;;;;;;6275654;22;20004;-55
2021/07/25 08:34:25;;;;;;;14.88;13.38;;;24.70;82.20;;;;;;6248215;22;20000;-55
2021/07/25 08:36:51;;;;;;;15.38;13.77;;;24.40;82.80;;;;;;6275038;22;20091;-54
2021/07/25 08:39:22;;;;;;;14.32;12.93;;;24.40;83.00;;;;;;6276589;22;20003;-61
2021/07/25 08:41:48;;;;;;;14.25;12.85;;;24.40;82.90;;;;;;6275727;22;19999;-53
2021/07/25 08:44:49;;;;;;;16.25;13.32;;;24.80;82.40;;;;;;6275687;22;20002;-59
2021/07/25 08:47:25;;;;;;;15.13;12.57;;;25.00;81.40;;;;;;6275586;22;20004;-57
2021/07/25 08:50:04;;;;;;;16.02;13.43;;;25.20;81.40;;;;;;6274922;22;20004;-57
2021/07/25 08:52:31;;;;;;;15.95;14.20;;;25.20;82.00;;;;;;6275457;22;19995;-57
2021/07/25 08:54:59;;;;;;;15.10;13.65;;;25.10;81.40;;;;;;6275419;22;20004;-59
2021/07/25 08:57:34;;;;;;;15.32;13.32;;;25.00;81.50;;;;;;6275003;22;20011;-56
2021/07/25 09:00:00;;;;;;;14.90;13.50;;;25.20;81.60;;;;;;6276784;22;20008;-58
2021/07/25 09:02:28;;;;;;;14.95;13.40;;;25.20;81.10;;;;;;6249172;22;20095;-56
2021/07/25 09:04:56;;;;;;;15.77;14.10;;;25.10;80.80;;;;;;6274503;22;20474;-58
2021/07/25 09:07:24;;;;;;;17.77;14.15;;;25.10;81.30;;;;;;6274281;22;20382;-60
2021/07/25 09:09:53;;;;;;;18.27;15.20;;;25.00;80.80;;;;;;6275332;22;20015;-56
2021/07/25 09:12:20;;;;;;;16.05;14.43;;;25.10;81.70;;;;;;6275039;22;20000;-54
2021/07/25 09:14:57;;;;;;;16.88;15.20;;;25.10;81.90;;;;;;6273998;22;20007;-52
2021/07/25 09:17:24;;;;;;;15.85;14.20;;;25.00;82.10;;;;;;6274644;22;20445;-57
2021/07/25 09:20:08;;;;;;;16.67;14.63;;;25.00;82.30;;;;;;6275044;22;20011;-54
2021/07/25 09:22:34;;;;;;;15.80;14.23;;;25.20;82.60;;;;;;6275195;22;20384;-60
2021/07/25 09:25:00;;;;;;;18.38;14.57;;;25.30;82.40;;;;;;6275496;22;20008;-57
2021/07/25 09:27:25;;;;;;;17.73;14.35;;;25.40;80.50;;;;;;6272039;22;20011;-53
2021/07/25 09:29:51;;;;;;;16.17;14.38;;;25.40;81.20;;;;;;6274317;22;20095;-53
2021/07/25 09:32:19;;;;;;;15.98;14.02;;;25.50;81.20;;;;;;6247853;22;20011;-57
2021/07/25 09:34:51;;;;;;;17.77;14.70;;;25.90;79.70;;;;;;6273371;22;20372;-58
2021/07/25 09:37:17;;;;;;;18.00;14.80;;;26.20;78.30;;;;;;6273058;22;20000;-58
2021/07/25 09:39:45;;;;;;;17.27;15.57;;;26.20;77.90;;;;;;6274789;22;20381;-53
2021/07/25 09:42:12;;;;;;;15.95;14.18;;;26.10;76.80;;;;;;6275353;22;20109;-56
2021/07/25 09:44:44;;;;;;;15.75;14.15;;;25.90;77.30;;;;;;6275575;22;20006;-55
2021/07/25 09:47:24;;;;;;;19.08;13.63;;;26.10;76.40;;;;;;6273981;22;20193;-55
2021/07/25 09:49:50;;;;;;;14.95;13.43;;;26.20;76.30;;;;;;6275471;22;20086;-58
2021/07/25 09:52:15;;;;;;;15.15;13.13;;;26.30;74.90;;;;;;6247892;22;20055;-56
2021/07/25 09:54:42;;;;;;;17.55;14.90;;;26.20;73.90;;;;;;6275135;22;20004;-53
2021/07/25 09:57:09;;;;;;;14.80;13.25;;;26.10;74.70;;;;;;6275341;22;20087;-58
2021/07/25 09:59:35;;;;;;;13.95;12.13;;;26.10;74.00;;;;;;6275571;22;20661;-55
2021/07/25 10:02:01;;;;;;;14.10;12.73;;;26.10;72.60;;;;;;6276403;22;20031;-54
2021/07/25 10:04:26;;;;;;;12.88;11.30;;;26.30;72.20;;;;;;6280610;22;20014;-56
2021/07/25 10:06:55;;;;;;;12.13;10.93;;;26.30;70.30;;;;;;6276208;22;20015;-57
2021/07/25 10:09:23;;;;;;;11.20;10.10;;;26.40;70.20;;;;;;6275398;22;20022;-57
2021/07/25 10:11:53;;;;;;;16.33;9.68;;;26.50;66.90;;;;;;6274732;22;20003;-58
2021/07/25 10:14:20;;;;;;;11.93;9.65;;;26.60;66.90;;;;;;6277000;22;20007;-56
2021/07/25 10:16:52;;;;;;;12.20;10.95;;;26.80;66.00;;;;;;6274421;22;20008;-56
2021/07/25 10:19:27;;;;;;;13.23;11.25;;;26.80;65.10;;;;;;6274965;22;20038;-56
2021/07/25 10:21:57;;;;;;;11.70;10.52;;;26.70;64.80;;;;;;6274946;22;20010;-56
2021/07/25 10:24:24;;;;;;;12.63;10.75;;;26.80;62.50;;;;;;6275466;22;20000;-56
2021/07/25 10:26:53;;;;;;;11.75;10.38;;;26.80;62.80;;;;;;6276043;22;20091;-61
2021/07/25 10:29:22;;;;;;;12.82;10.40;;;26.70;63.60;;;;;;6275368;22;20011;-60
2021/07/25 10:31:50;;;;;;;11.15;10.05;;;27.00;63.60;;;;;;6274070;22;20104;-60
2021/07/25 10:34:16;;;;;;;11.43;10.23;;;26.80;64.00;;;;;;6276963;22;20437;-58
2021/07/25 10:36:44;;;;;;;11.75;10.65;;;26.80;65.00;;;;;;6250551;22;20004;-61
2021/07/25 10:39:10;;;;;;;12.25;10.93;;;27.00;63.80;;;;;;6281134;22;20004;-62
2021/07/25 10:41:36;;;;;;;12.20;11.00;;;27.00;63.60;;;;;;6254722;22;20521;-61
2021/07/25 10:44:03;;;;;;;14.45;11.45;;;27.10;63.50;;;;;;6281443;22;20035;-61
2021/07/25 10:46:30;;;;;;;11.93;10.73;;;27.40;64.10;;;;;;6285052;22;20004;-60
2021/07/25 10:48:59;;;;;;;12.13;10.93;;;27.60;63.10;;;;;;6286500;22;20038;-61
2021/07/25 10:51:26;;;;;;;14.50;10.55;;;27.80;63.40;;;;;;6286065;22;20012;-60
2021/07/25 10:53:51;;;;;;;14.95;11.15;;;28.10;62.60;;;;;;6287013;22;20023;-60
2021/07/25 10:56:37;;;;;;;11.65;10.55;;;28.10;62.40;;;;;;6276559;22;20003;-56
2021/07/25 10:59:02;;;;;;;11.25;10.15;;;28.20;62.20;;;;;;6279589;22;20079;-59
2021/07/25 11:01:44;;;;;;;11.15;10.13;;;28.10;61.50;;;;;;6280184;22;20004;-59
2021/07/25 11:04:09;;;;;;;12.32;11.05;;;28.30;62.00;;;;;;6279621;22;20007;-59
2021/07/25 11:06:37;;;;;;;11.80;10.52;;;28.30;62.10;;;;;;6277875;22;20003;-61
2021/07/25 11:09:03;;;;;;;11.15;10.05;;;28.40;62.30;;;;;;6279975;22;20084;-58
2021/07/25 11:11:35;;;;;;;11.40;10.20;;;28.60;61.70;;;;;;6281457;22;20530;-58
2021/07/25 11:14:02;;;;;;;14.95;11.35;;;28.80;62.00;;;;;;6281501;22;20000;-60
2021/07/25 11:16:29;;;;;;;11.85;10.40;;;28.80;62.00;;;;;;6281570;22;20000;-60
2021/07/25 11:18:55;;;;;;;12.55;11.20;;;28.70;62.10;;;;;;6281314;22;20004;-61
2021/07/25 11:21:31;;;;;;;11.82;10.70;;;28.70;62.40;;;;;;6282046;22;20067;-61
2021/07/25 11:23:57;;;;;;;11.43;10.43;;;28.80;62.60;;;;;;6281314;22;20000;-59
2021/07/25 11:26:33;;;;;;;12.00;10.88;;;28.70;62.60;;;;;;6279702;22;20043;-61
2021/07/25 11:29:01;;;;;;;12.48;11.27;;;28.70;62.10;;;;;;6281701;22;20000;-58
2021/07/25 11:31:34;;;;;;;12.13;10.95;;;28.10;63.80;;;;;;6280626;22;20003;-60
2021/07/25 11:34:00;;;;;;;12.13;10.95;;;28.20;64.00;;;;;;6282200;22;20011;-59
2021/07/25 11:36:25;;;;;;;11.70;10.43;;;28.30;63.50;;;;;;6282857;22;20035;-61
2021/07/25 11:38:56;;;;;;;12.55;11.25;;;28.00;64.60;;;;;;6280896;22;20008;-61
2021/07/25 11:41:33;;;;;;;12.00;10.80;;;27.70;64.90;;;;;;6280439;22;20011;-56
2021/07/25 11:44:07;;;;;;;11.57;10.45;;;27.80;65.50;;;;;;6279832;22;20004;-62
2021/07/25 11:46:35;;;;;;;12.15;10.93;;;28.00;65.10;;;;;;6277700;22;20042;-62
2021/07/25 11:49:22;;;;;;;11.82;10.73;;;28.20;64.60;;;;;;6282709;22;20006;-62
2021/07/25 11:52:11;;;;;;;12.70;10.90;;;28.50;63.30;;;;;;6288111;22;20008;-61
2021/07/25 11:54:41;;;;;;;13.52;10.18;;;28.50;63.50;;;;;;6287320;22;20050;-61
2021/07/25 11:57:14;;;;;;;10.20;9.20;;;28.50;62.90;;;;;;6287676;22;20409;-60
2021/07/25 11:59:48;;;;;;;10.77;9.73;;;28.40;62.30;;;;;;6284240;22;20440;-62
2021/07/25 12:02:24;;;;;;;11.05;9.95;;;28.50;62.30;;;;;;6283907;22;19996;-61
2021/07/25 12:04:50;;;;;;;11.68;10.35;;;28.50;63.40;;;;;;6285776;22;20473;-61
2021/07/25 12:07:20;;;;;;;11.45;10.25;;;28.60;62.30;;;;;;6281027;22;20000;-61
2021/07/25 12:09:53;;;;;;;9.65;8.75;;;28.50;63.10;;;;;;6280400;22;20039;-61
2021/07/25 12:12:21;;;;;;;10.40;9.40;;;28.70;61.90;;;;;;6279149;22;20000;-61
2021/07/25 12:14:52;;;;;;;10.35;9.45;;;28.80;61.90;;;;;;6283076;22;20421;-60
2021/07/25 12:17:49;;;;;;;9.73;8.73;;;28.50;61.40;;;;;;6280690;22;20004;-61
2021/07/25 12:20:21;;;;;;;9.90;8.85;;;28.80;62.10;;;;;;6280405;22;20011;-62
2021/07/25 12:23:10;;;;;;;10.25;9.30;;;29.10;62.10;;;;;;6277741;22;20004;-60
2021/07/25 12:25:47;;;;;;;11.68;10.10;;;29.30;61.60;;;;;;6258633;22;20058;-61
2021/07/25 12:28:14;;;;;;;12.32;11.23;;;29.30;61.00;;;;;;6281732;22;20007;-59
2021/07/25 12:30:47;;;;;;;11.35;10.25;;;29.30;60.90;;;;;;6279871;22;20011;-62
2021/07/25 12:33:24;;;;;;;12.38;11.10;;;29.30;61.20;;;;;;6276730;22;19996;-62
2021/07/25 12:35:50;;;;;;;14.75;9.70;;;29.40;60.90;;;;;;6279172;22;20008;-62